Time;durP1;ratioP1;P1;durP2;ratioP2;P2;SDS_P1;SDS_P2;PMS_P1;PMS_P2;Temp;Humidity;BMP_temperature;BMP_pressure;BME280_temperature;BME280_humidity;BME280_pressure;Samples;Min_cycle;Max_cycle;Signal;HPM_P1;HPM_P2
2023/10/14 00:01:11;;;;;;;9.77;4.63;;;10.60;99.90;;;;;;5043387;28;20029;-83
2023/10/14 00:03:41;;;;;;;7.20;4.72;;;10.60;99.90;;;;;;5043093;28;20029;-83
2023/10/14 00:06:07;;;;;;;10.15;4.82;;;10.60;99.90;;;;;;5043065;28;20059;-83
2023/10/14 00:08:47;;;;;;;5.47;4.00;;;10.60;99.90;;;;;;5043073;28;20401;-85
2023/10/14 00:11:13;;;;;;;9.23;4.85;;;10.50;99.90;;;;;;5044489;28;20026;-82
2023/10/14 00:13:42;;;;;;;7.95;4.38;;;10.40;99.90;;;;;;5043051;28;20389;-84
2023/10/14 00:16:24;;;;;;;10.38;4.25;;;10.40;99.90;;;;;;5042492;28;20026;-83
2023/10/14 00:18:50;;;;;;;9.80;4.07;;;10.40;99.90;;;;;;5043034;28;20030;-83
2023/10/14 00:21:15;;;;;;;8.13;3.88;;;10.30;99.90;;;;;;5045298;28;20109;-83
2023/10/14 00:23:41;;;;;;;13.43;4.47;;;10.20;99.90;;;;;;5043478;28;20283;-83
2023/10/14 00:26:17;;;;;;;5.85;3.95;;;10.30;99.90;;;;;;5042949;28;20030;-82
2023/10/14 00:28:50;;;;;;;6.82;3.72;;;10.20;99.90;;;;;;5043257;28;20025;-84
2023/10/14 00:31:16;;;;;;;5.72;4.30;;;10.20;99.90;;;;;;5044541;28;20022;-83
2023/10/14 00:33:45;;;;;;;7.68;5.20;;;10.20;99.90;;;;;;5059425;28;20025;-82
2023/10/14 00:36:12;;;;;;;14.43;5.07;;;10.20;99.90;;;;;;5044192;28;20032;-82
2023/10/14 00:38:39;;;;;;;5.97;4.32;;;10.20;99.90;;;;;;5059285;28;20029;-85
2023/10/14 00:41:08;;;;;;;6.20;4.30;;;10.20;99.90;;;;;;5042503;28;20076;-84
2023/10/14 00:43:35;;;;;;;9.23;4.05;;;10.10;99.90;;;;;;5043049;28;20071;-82
2023/10/14 00:46:09;;;;;;;9.05;5.20;;;10.10;99.90;;;;;;5042857;28;20056;-83
2023/10/14 00:48:40;;;;;;;7.93;4.65;;;10.10;99.90;;;;;;5044324;28;20028;-84
2023/10/14 00:51:10;;;;;;;11.57;4.15;;;10.10;99.90;;;;;;5043979;28;20446;-83
2023/10/14 00:53:39;;;;;;;9.05;5.35;;;10.00;99.90;;;;;;5044701;28;20081;-83
2023/10/14 00:56:06;;;;;;;11.32;4.55;;;10.00;99.90;;;;;;5043408;28;20026;-83
2023/10/14 00:58:39;;;;;;;9.18;4.80;;;10.00;99.90;;;;;;5060751;28;20025;-84
2023/10/14 01:01:07;;;;;;;8.93;4.38;;;10.00;99.90;;;;;;5059255;28;20036;-84
2023/10/14 01:03:36;;;;;;;8.35;4.50;;;10.00;99.90;;;;;;5058465;28;20029;-84
2023/10/14 01:08:50;;;;;;;9.75;4.13;;;9.90;99.90;;;;;;5053495;28;20067;-84
2023/10/14 01:11:18;;;;;;;9.15;4.45;;;10.00;99.90;;;;;;5048192;28;20031;-84
2023/10/14 01:13:47;;;;;;;8.27;4.80;;;10.00;99.90;;;;;;5048687;28;20108;-84
2023/10/14 01:16:15;;;;;;;7.82;4.63;;;10.00;99.90;;;;;;5046546;28;20026;-82
2023/10/14 01:18:44;;;;;;;12.25;6.07;;;10.00;99.90;;;;;;5046800;28;20048;-83
2023/10/14 01:21:10;;;;;;;8.25;4.68;;;10.00;99.90;;;;;;5046917;28;20017;-84
2023/10/14 01:23:37;;;;;;;7.78;4.30;;;10.00;99.90;;;;;;5045007;28;20029;-84
2023/10/14 01:26:06;;;;;;;10.75;4.88;;;10.00;99.90;;;;;;5043814;28;20156;-85
2023/10/14 01:28:32;;;;;;;10.95;5.03;;;10.00;99.90;;;;;;5060725;28;20433;-84
2023/10/14 01:33:55;;;;;;;;;;;10.10;99.90;;;;;;5045599;28;20573;-82
2023/10/14 01:36:24;;;;;;;;;;;10.10;99.90;;;;;;5044605;28;19959;-84
2023/10/14 01:38:59;;;;;;;8.85;4.22;;;10.00;99.90;;;;;;5059981;28;19916;-83
2023/10/14 01:41:30;;;;;;;5.20;3.63;;;10.10;99.90;;;;;;5042800;28;20025;-84
2023/10/14 01:43:58;;;;;;;4.80;3.63;;;10.00;99.90;;;;;;5043865;28;20311;-82
2023/10/14 01:46:27;;;;;;;7.57;3.92;;;10.00;99.90;;;;;;5042940;28;20056;-85
2023/10/14 01:48:55;;;;;;;9.00;4.05;;;10.00;99.90;;;;;;5043307;28;20093;-82
2023/10/14 01:51:20;;;;;;;8.93;3.83;;;10.10;99.90;;;;;;5042441;28;20026;-82
2023/10/14 01:53:46;;;;;;;10.25;4.88;;;10.00;99.90;;;;;;5043972;28;20052;-84
2023/10/14 01:56:12;;;;;;;11.93;4.28;;;10.00;99.90;;;;;;5046704;28;20022;-84
2023/10/14 01:58:40;;;;;;;9.50;4.75;;;10.00;99.90;;;;;;5046867;28;20122;-83
2023/10/14 02:03:47;;;;;;;9.95;4.22;;;10.00;99.90;;;;;;5048461;28;20029;-86
2023/10/14 02:06:17;;;;;;;9.32;4.45;;;10.00;99.90;;;;;;5047966;28;20088;-83
2023/10/14 02:08:46;;;;;;;8.02;4.18;;;9.90;99.90;;;;;;5064102;28;20037;-84
2023/10/14 02:11:12;;;;;;;12.23;4.82;;;10.00;99.90;;;;;;5049443;28;20049;-83
2023/10/14 02:13:38;;;;;;;8.75;4.75;;;9.90;99.90;;;;;;5049165;28;20021;-84
2023/10/14 02:16:07;;;;;;;20.88;5.57;;;10.00;99.90;;;;;;5050368;28;20032;-85
2023/10/14 02:18:36;;;;;;;10.57;5.35;;;9.90;99.90;;;;;;5051429;28;20021;-83
2023/10/14 02:21:06;;;;;;;10.55;5.07;;;9.90;99.90;;;;;;5051372;28;20026;-84
2023/10/14 02:23:46;;;;;;;11.65;5.03;;;9.80;99.90;;;;;;5067004;28;20034;-85
2023/10/14 02:26:12;;;;;;;12.23;4.50;;;9.80;99.90;;;;;;5050504;28;20064;-83
2023/10/14 02:28:41;;;;;;;9.13;4.57;;;9.80;99.90;;;;;;5051411;28;20030;-84
2023/10/14 02:31:16;;;;;;;10.32;4.65;;;9.80;99.90;;;;;;5051579;28;20029;-86
2023/10/14 02:33:45;;;;;;;7.68;4.55;;;9.70;99.90;;;;;;5051498;28;20041;-85
2023/10/14 02:36:15;;;;;;;6.53;4.10;;;9.60;99.90;;;;;;5066978;28;20049;-86
2023/10/14 02:38:52;;;;;;;11.00;4.10;;;9.70;99.90;;;;;;5051392;28;20018;-85
2023/10/14 02:41:19;;;;;;;10.38;4.40;;;9.60;99.90;;;;;;5050938;28;20025;-87
2023/10/14 02:43:49;;;;;;;9.18;4.68;;;9.50;99.90;;;;;;5051096;28;20029;-85
2023/10/14 02:46:25;;;;;;;11.18;5.20;;;9.60;99.90;;;;;;5049968;28;20032;-87
2023/10/14 02:48:53;;;;;;;10.85;5.80;;;9.60;99.90;;;;;;5051335;28;20025;-85
2023/10/14 02:51:42;;;;;;;5.00;3.47;;;9.60;99.90;;;;;;5052512;28;20021;-83
2023/10/14 02:54:26;;;;;;;7.35;4.10;;;9.50;99.90;;;;;;5052080;28;20017;-87
2023/10/14 02:56:59;;;;;;;6.20;3.60;;;9.50;99.90;;;;;;5055401;28;20018;-85
2023/10/14 02:59:43;;;;;;;8.02;4.50;;;9.50;99.90;;;;;;5059441;28;20045;-85
2023/10/14 03:02:15;;;;;;;8.68;4.05;;;9.50;99.90;;;;;;5058710;28;20036;-86
2023/10/14 03:07:37;;;;;;;6.68;4.20;;;9.50;99.90;;;;;;5059209;28;20037;-84
2023/10/14 03:12:42;;;;;;;12.65;4.63;;;9.60;99.90;;;;;;5059584;28;20010;-86
2023/10/14 03:15:19;;;;;;;11.70;4.47;;;9.60;99.90;;;;;;5059299;28;20036;-85
2023/10/14 03:18:37;;;;;;;9.57;4.60;;;9.60;99.90;;;;;;5059032;28;20009;-85
2023/10/14 03:20:45;;;;;;;6.75;4.07;;;9.60;99.90;;;;;;5051925;28;20105;-84
2023/10/14 03:23:18;;;;;;;6.45;4.47;;;9.70;99.90;;;;;;5059988;28;20123;-82
2023/10/14 03:25:46;;;;;;;14.00;4.50;;;9.70;99.90;;;;;;5041690;28;20030;-83
2023/10/14 03:28:14;;;;;;;8.95;4.13;;;9.70;99.90;;;;;;5042261;28;20054;-82
2023/10/14 03:30:45;;;;;;;6.40;3.92;;;9.80;99.90;;;;;;5040699;28;20060;-82
2023/10/14 03:33:19;;;;;;;11.30;4.22;;;9.80;99.90;;;;;;5042265;28;20017;-82
2023/10/14 03:35:57;;;;;;;6.88;4.50;;;9.80;99.90;;;;;;5040382;28;20029;-85
2023/10/14 03:41:03;;;;;;;;;;;9.80;99.90;;;;;;5042019;28;20025;-81
2023/10/14 03:43:44;;;;;;;9.00;4.07;;;9.90;99.90;;;;;;5057405;28;19968;-83
2023/10/14 03:46:14;;;;;;;6.13;3.70;;;9.90;99.90;;;;;;5036536;28;20408;-82
2023/10/14 03:48:47;;;;;;;14.48;4.38;;;9.80;99.90;;;;;;5039706;28;20048;-84
2023/10/14 03:51:22;;;;;;;6.65;4.03;;;9.70;99.90;;;;;;5039068;28;20082;-83
2023/10/14 03:53:48;;;;;;;8.00;3.88;;;9.80;99.90;;;;;;5037584;28;20028;-84
2023/10/14 03:56:13;;;;;;;8.55;4.45;;;9.70;99.90;;;;;;5037149;28;20021;-83
2023/10/14 03:58:41;;;;;;;11.27;4.85;;;9.80;99.90;;;;;;5039389;28;20030;-82
2023/10/14 04:01:07;;;;;;;9.25;3.65;;;9.90;99.90;;;;;;5053283;28;20028;-82
2023/10/14 04:03:43;;;;;;;8.75;4.72;;;9.90;99.90;;;;;;5037415;28;20037;-82
2023/10/14 04:06:09;;;;;;;5.25;4.00;;;9.90;99.90;;;;;;5036955;28;20079;-83
2023/10/14 04:08:40;;;;;;;7.72;4.32;;;9.80;99.90;;;;;;5038470;28;20029;-81
2023/10/14 04:11:25;;;;;;;7.13;4.15;;;9.80;99.90;;;;;;5036815;28;20021;-84
2023/10/14 04:16:28;;;;;;;9.38;3.63;;;9.90;99.90;;;;;;5035688;28;20057;-82
2023/10/14 04:19:00;;;;;;;5.97;4.50;;;9.90;99.90;;;;;;5035958;28;20029;-83
2023/10/14 04:21:35;;;;;;;5.70;3.80;;;9.80;99.90;;;;;;5034251;28;20488;-82
2023/10/14 04:26:34;;;;;;;6.72;4.20;;;9.80;99.90;;;;;;5037295;28;20485;-82
2023/10/14 04:29:03;;;;;;;6.78;4.38;;;9.70;99.90;;;;;;5037132;28;20049;-83
2023/10/14 04:31:40;;;;;;;10.38;4.70;;;9.70;99.90;;;;;;5037571;28;20028;-83
2023/10/14 04:34:07;;;;;;;6.57;5.32;;;9.80;99.90;;;;;;5037062;28;20532;-82
2023/10/14 04:36:38;;;;;;;6.53;4.43;;;9.90;99.90;;;;;;5035229;28;20087;-82
2023/10/14 04:39:13;;;;;;;6.40;4.13;;;9.90;99.90;;;;;;5038163;28;20032;-84
2023/10/14 04:41:55;;;;;;;8.38;4.43;;;9.90;99.90;;;;;;5039274;28;20026;-82
2023/10/14 04:44:28;;;;;;;8.88;4.78;;;9.80;99.90;;;;;;5055647;28;20063;-86
2023/10/14 04:47:01;;;;;;;8.93;4.97;;;9.90;99.90;;;;;;5049819;28;20018;-85
2023/10/14 04:49:37;;;;;;;11.40;5.32;;;10.00;99.90;;;;;;5047917;28;20029;-86
2023/10/14 04:52:06;;;;;;;8.35;5.28;;;10.00;99.90;;;;;;5044319;28;20022;-84
2023/10/14 04:54:35;;;;;;;13.50;5.35;;;10.00;99.90;;;;;;5043355;28;20069;-82
2023/10/14 04:57:20;;;;;;;11.25;4.70;;;10.00;99.90;;;;;;5043789;28;20025;-85
2023/10/14 04:59:51;;;;;;;8.27;5.22;;;10.10;99.90;;;;;;5042781;28;20021;-84
2023/10/14 05:02:21;;;;;;;10.50;5.75;;;10.10;99.90;;;;;;5040968;28;20060;-87
2023/10/14 05:04:49;;;;;;;12.48;5.55;;;10.10;99.90;;;;;;5057843;28;20032;-83
2023/10/14 05:07:15;;;;;;;9.68;5.68;;;10.10;99.90;;;;;;5038406;28;20032;-82
2023/10/14 05:09:42;;;;;;;12.13;5.40;;;10.10;99.90;;;;;;5039412;28;20021;-84
2023/10/14 05:12:08;;;;;;;11.48;5.82;;;10.20;99.90;;;;;;5039046;28;20125;-83
2023/10/14 05:14:36;;;;;;;10.40;5.82;;;10.20;99.90;;;;;;5036155;28;20021;-83
2023/10/14 05:17:16;;;;;;;13.98;6.22;;;10.20;99.90;;;;;;5036427;28;20026;-83
2023/10/14 05:19:43;;;;;;;10.00;5.95;;;10.20;99.90;;;;;;5035683;28;20030;-83
2023/10/14 05:22:19;;;;;;;12.75;7.00;;;10.30;99.90;;;;;;5034677;28;20026;-81
2023/10/14 05:24:48;;;;;;;7.40;6.20;;;10.60;99.90;;;;;;5035903;28;20052;-83
2023/10/14 05:27:19;;;;;;;11.57;6.35;;;11.40;99.90;;;;;;5034981;28;20060;-83
2023/10/14 05:29:51;;;;;;;11.98;7.75;;;11.10;99.90;;;;;;5042979;28;20104;-82
2023/10/14 05:32:23;;;;;;;10.68;7.20;;;11.00;99.90;;;;;;5039092;28;20079;-83
2023/10/14 05:34:50;;;;;;;11.43;6.90;;;10.80;99.90;;;;;;5040272;28;20029;-84
2023/10/14 05:37:16;;;;;;;11.65;7.57;;;10.80;99.90;;;;;;5038755;28;20029;-83
2023/10/14 05:39:42;;;;;;;12.30;6.90;;;10.70;99.90;;;;;;5040113;28;20121;-83
2023/10/14 05:42:21;;;;;;;9.38;6.68;;;10.70;99.90;;;;;;5040381;28;20033;-82
2023/10/14 05:44:47;;;;;;;13.63;6.32;;;10.70;99.90;;;;;;5039775;28;20078;-83
2023/10/14 05:47:18;;;;;;;11.40;7.07;;;10.70;99.90;;;;;;5038774;28;20104;-82
2023/10/14 05:49:44;;;;;;;10.32;6.28;;;10.70;99.90;;;;;;5040673;28;20025;-82
2023/10/14 05:52:13;;;;;;;9.00;6.78;;;10.70;99.90;;;;;;5040754;28;20079;-82
2023/10/14 05:54:41;;;;;;;14.85;6.97;;;10.70;99.90;;;;;;5040203;28;20488;-82
2023/10/14 05:57:10;;;;;;;9.07;6.63;;;10.80;99.90;;;;;;5038854;28;20041;-82
2023/10/14 05:59:37;;;;;;;10.20;6.65;;;10.90;99.90;;;;;;5039292;28;20025;-82
2023/10/14 06:02:08;;;;;;;10.68;6.65;;;10.90;99.90;;;;;;5048396;28;20037;-87
2023/10/14 06:04:39;;;;;;;12.13;7.05;;;10.90;99.90;;;;;;5051355;28;20060;-86
2023/10/14 06:07:09;;;;;;;12.63;7.53;;;11.00;99.90;;;;;;5049486;28;20434;-85
2023/10/14 06:09:36;;;;;;;11.10;7.32;;;11.00;99.90;;;;;;5050353;28;20032;-84
2023/10/14 06:12:06;;;;;;;17.98;7.40;;;11.00;99.90;;;;;;5048417;28;20140;-83
2023/10/14 06:14:35;;;;;;;14.07;6.75;;;11.20;99.90;;;;;;5045271;28;20048;-83
2023/10/14 06:17:00;;;;;;;16.73;8.10;;;11.20;99.90;;;;;;5040580;28;20366;-81
2023/10/14 06:19:26;;;;;;;13.77;7.90;;;11.20;99.90;;;;;;5038026;28;20034;-82
2023/10/14 06:21:52;;;;;;;15.52;7.80;;;11.10;99.90;;;;;;5037778;28;20037;-83
2023/10/14 06:24:18;;;;;;;10.50;7.25;;;11.20;99.90;;;;;;5038748;28;20134;-84
2023/10/14 06:26:44;;;;;;;12.63;8.88;;;11.30;99.90;;;;;;5038827;28;20026;-83
2023/10/14 06:29:10;;;;;;;11.68;7.88;;;11.40;99.90;;;;;;5038959;28;20028;-82
2023/10/14 06:31:37;;;;;;;14.75;8.68;;;11.40;99.90;;;;;;5040057;28;20527;-82
2023/10/14 06:34:09;;;;;;;18.75;7.60;;;11.40;99.90;;;;;;5039047;28;20060;-82
2023/10/14 06:36:37;;;;;;;12.07;7.47;;;11.50;99.90;;;;;;5037987;28;20029;-83
2023/10/14 06:39:26;;;;;;;9.77;7.25;;;11.50;99.90;;;;;;5038715;28;20072;-83
2023/10/14 06:41:52;;;;;;;11.65;7.00;;;11.50;99.90;;;;;;5038860;28;20026;-82
2023/10/14 06:44:21;;;;;;;14.15;7.60;;;11.50;99.90;;;;;;5038766;28;20026;-82
2023/10/14 06:46:47;;;;;;;12.65;7.78;;;11.50;99.90;;;;;;5038508;28;20033;-82
2023/10/14 06:49:16;;;;;;;11.93;7.45;;;11.50;99.90;;;;;;5054235;28;20392;-82
2023/10/14 06:51:42;;;;;;;10.68;7.80;;;11.50;99.90;;;;;;5039643;28;20647;-82
2023/10/14 06:54:14;;;;;;;14.32;7.80;;;11.60;99.90;;;;;;5054353;28;20040;-83
2023/10/14 06:56:44;;;;;;;12.85;8.02;;;11.60;99.90;;;;;;5037568;28;20493;-82
2023/10/14 06:59:13;;;;;;;15.20;7.95;;;11.70;99.90;;;;;;5055295;28;20036;-82
2023/10/14 07:01:39;;;;;;;16.58;7.72;;;11.70;99.90;;;;;;5039446;28;20374;-84
2023/10/14 07:04:06;;;;;;;10.68;8.00;;;11.70;99.90;;;;;;5039014;28;20511;-82
2023/10/14 07:06:32;;;;;;;15.65;8.38;;;11.80;99.90;;;;;;5038111;28;20040;-82
2023/10/14 07:08:57;;;;;;;10.70;7.20;;;11.90;99.90;;;;;;5038940;28;20120;-83
2023/10/14 07:11:23;;;;;;;8.63;6.20;;;11.90;99.90;;;;;;5037940;28;20033;-83
2023/10/14 07:13:49;;;;;;;12.40;5.55;;;11.90;99.90;;;;;;5037770;28;20040;-81
2023/10/14 07:16:14;;;;;;;11.70;7.32;;;12.60;99.90;;;;;;5038512;28;20385;-81
2023/10/14 07:18:40;;;;;;;18.50;10.52;;;13.20;99.90;;;;;;5037973;28;20029;-78
2023/10/14 07:21:08;;;;;;;17.40;10.05;;;13.80;99.90;;;;;;5039353;28;20025;-77
2023/10/14 07:23:34;;;;;;;15.30;9.18;;;13.90;99.90;;;;;;5040361;28;20061;-78
2023/10/14 07:26:11;;;;;;;15.35;9.57;;;13.90;99.90;;;;;;5039679;28;20028;-78
2023/10/14 07:28:42;;;;;;;14.15;8.98;;;14.40;99.90;;;;;;5038903;28;20528;-77
2023/10/14 07:31:10;;;;;;;13.57;9.05;;;14.40;99.90;;;;;;5040418;28;20082;-78
2023/10/14 07:33:37;;;;;;;13.20;8.65;;;14.70;99.90;;;;;;5039934;28;20022;-81
2023/10/14 07:36:06;;;;;;;12.65;8.82;;;15.30;99.90;;;;;;5036686;28;20056;-76
2023/10/14 07:38:35;;;;;;;18.33;8.55;;;15.20;99.90;;;;;;5035866;28;20044;-76
2023/10/14 07:41:01;;;;;;;12.55;8.15;;;15.20;99.90;;;;;;5035059;28;20538;-78
2023/10/14 07:43:27;;;;;;;12.60;8.63;;;15.60;99.90;;;;;;5035757;28;20025;-78
2023/10/14 07:45:53;;;;;;;11.70;7.47;;;15.40;99.90;;;;;;5035745;28;20044;-78
2023/10/14 07:48:20;;;;;;;10.40;7.53;;;15.30;99.90;;;;;;5036339;28;20029;-78
2023/10/14 07:50:47;;;;;;;9.48;5.65;;;15.50;99.90;;;;;;5034345;28;20025;-79
2023/10/14 07:53:14;;;;;;;10.70;6.60;;;15.60;99.90;;;;;;5034962;28;20040;-74
2023/10/14 07:55:47;;;;;;;11.27;7.10;;;15.60;99.90;;;;;;5034725;28;20112;-79
2023/10/14 07:58:14;;;;;;;19.38;7.35;;;15.50;99.90;;;;;;5037957;28;20025;-79
2023/10/14 08:00:50;;;;;;;11.38;7.28;;;15.60;99.90;;;;;;5036034;28;20053;-78
2023/10/14 08:03:20;;;;;;;9.82;7.13;;;15.60;99.90;;;;;;5034387;28;20032;-77
2023/10/14 08:05:49;;;;;;;8.93;6.60;;;15.40;99.90;;;;;;5034037;28;20378;-79
2023/10/14 08:08:15;;;;;;;8.70;5.95;;;15.40;99.90;;;;;;5038002;28;20031;-79
2023/10/14 08:10:46;;;;;;;8.80;6.22;;;15.20;99.90;;;;;;5037118;28;20022;-78
2023/10/14 08:13:13;;;;;;;10.38;7.15;;;15.20;99.90;;;;;;5036861;28;20097;-80
2023/10/14 08:15:40;;;;;;;10.52;5.65;;;15.30;99.90;;;;;;5034943;28;20075;-80
2023/10/14 08:18:06;;;;;;;10.65;7.43;;;15.30;99.90;;;;;;5035491;28;20112;-79
2023/10/14 08:20:33;;;;;;;9.18;7.18;;;15.10;99.90;;;;;;5050541;28;20040;-79
2023/10/14 08:23:00;;;;;;;9.10;6.78;;;15.30;99.90;;;;;;5042018;28;20168;-80
2023/10/14 08:25:26;;;;;;;8.93;6.22;;;15.50;99.90;;;;;;5037482;28;20029;-78
2023/10/14 08:27:57;;;;;;;11.68;6.88;;;15.40;99.90;;;;;;5035235;28;20084;-78
2023/10/14 08:30:24;;;;;;;8.77;6.10;;;15.30;99.90;;;;;;5042068;28;20120;-79
2023/10/14 08:32:52;;;;;;;12.10;7.35;;;15.40;99.90;;;;;;5053533;28;20032;-79
2023/10/14 08:35:19;;;;;;;9.13;6.63;;;15.50;99.90;;;;;;5036469;28;20029;-79
2023/10/14 08:37:50;;;;;;;14.00;7.07;;;15.70;99.90;;;;;;5052652;28;20081;-79
2023/10/14 08:40:22;;;;;;;10.07;7.13;;;15.70;99.90;;;;;;5051834;28;20049;-80
2023/10/14 08:42:54;;;;;;;38.35;8.20;;;15.80;99.90;;;;;;5036518;28;20144;-81
2023/10/14 08:45:21;;;;;;;17.75;7.07;;;15.90;99.90;;;;;;5051587;28;20029;-80
2023/10/14 08:47:50;;;;;;;10.25;6.20;;;16.00;99.90;;;;;;5036097;28;20389;-80
2023/10/14 08:50:18;;;;;;;8.85;5.63;;;16.10;99.90;;;;;;5036283;28;20096;-78
2023/10/14 08:52:49;;;;;;;8.35;4.88;;;16.10;99.90;;;;;;5036305;28;20085;-79
2023/10/14 08:55:16;;;;;;;6.97;5.78;;;16.20;99.90;;;;;;5050857;28;20049;-79
2023/10/14 08:57:45;;;;;;;8.52;5.80;;;16.30;99.90;;;;;;5035714;28;20067;-80
2023/10/14 09:00:14;;;;;;;10.50;6.07;;;16.50;99.90;;;;;;5035277;28;20029;-80
2023/10/14 09:02:40;;;;;;;7.57;5.32;;;16.70;99.90;;;;;;5034861;28;20025;-80
2023/10/14 09:05:11;;;;;;;20.60;5.60;;;16.90;99.90;;;;;;5034305;28;20026;-79
2023/10/14 09:07:38;;;;;;;9.32;5.43;;;17.30;99.90;;;;;;5033198;28;20018;-82
2023/10/14 09:10:05;;;;;;;12.00;4.65;;;17.50;99.90;;;;;;5033783;28;20022;-82
2023/10/14 09:12:32;;;;;;;10.63;5.28;;;17.60;99.90;;;;;;5032329;28;20113;-82
2023/10/14 09:14:58;;;;;;;9.65;4.80;;;17.60;99.90;;;;;;5033463;28;20523;-82
2023/10/14 09:17:23;;;;;;;7.78;4.47;;;17.70;99.90;;;;;;5032612;28;20052;-82
2023/10/14 09:19:53;;;;;;;9.73;4.20;;;17.70;99.90;;;;;;5048718;28;20025;-81
2023/10/14 09:22:25;;;;;;;6.80;4.57;;;17.80;99.90;;;;;;5033228;28;20041;-80
2023/10/14 09:24:58;;;;;;;5.00;3.90;;;17.90;99.90;;;;;;5030818;28;20060;-79
2023/10/14 09:27:26;;;;;;;6.28;4.85;;;17.90;99.90;;;;;;5032585;28;20025;-81
2023/10/14 09:29:53;;;;;;;7.20;4.70;;;17.90;99.90;;;;;;5032086;28;20029;-76
2023/10/14 09:32:18;;;;;;;6.10;4.45;;;18.00;99.90;;;;;;5032007;28;20017;-77
2023/10/14 09:34:44;;;;;;;11.30;4.63;;;18.00;99.90;;;;;;5031933;28;20021;-80
2023/10/14 09:37:10;;;;;;;5.03;4.13;;;18.10;99.90;;;;;;5047101;28;20516;-77
2023/10/14 09:39:42;;;;;;;6.80;3.97;;;18.20;99.90;;;;;;5047123;28;20032;-77
2023/10/14 09:42:12;;;;;;;7.85;4.65;;;18.20;99.90;;;;;;5031815;28;20520;-77
2023/10/14 09:44:42;;;;;;;8.95;4.05;;;18.30;99.90;;;;;;5031883;28;20029;-79
2023/10/14 09:47:13;;;;;;;6.95;5.25;;;18.40;99.90;;;;;;5046903;28;20401;-77
2023/10/14 09:49:40;;;;;;;5.85;3.55;;;18.50;99.90;;;;;;5032071;28;20025;-78
2023/10/14 09:52:06;;;;;;;7.47;4.95;;;18.50;99.90;;;;;;5030915;28;20163;-77
2023/10/14 09:54:34;;;;;;;7.45;4.55;;;18.70;99.90;;;;;;5031582;28;20078;-78
2023/10/14 09:57:03;;;;;;;5.90;3.83;;;18.80;99.90;;;;;;5031239;28;20022;-78
2023/10/14 09:59:30;;;;;;;8.52;4.90;;;18.90;99.90;;;;;;5031217;28;20104;-77
2023/10/14 10:01:56;;;;;;;7.55;4.07;;;18.80;99.90;;;;;;5031355;28;20033;-76
2023/10/14 10:04:33;;;;;;;5.22;4.15;;;18.80;99.90;;;;;;5047002;28;20033;-77
2023/10/14 10:07:04;;;;;;;6.43;3.70;;;19.00;99.90;;;;;;5029567;28;20022;-76
2023/10/14 10:10:00;;;;;;;5.72;3.72;;;19.10;99.90;;;;;;5046717;28;20049;-76
2023/10/14 10:12:30;;;;;;;4.20;3.37;;;19.30;99.90;;;;;;5031567;28;20027;-77
2023/10/14 10:15:03;;;;;;;4.95;3.30;;;19.60;99.90;;;;;;5032783;28;20255;-76
2023/10/14 10:17:33;;;;;;;4.95;3.53;;;19.90;99.90;;;;;;5034650;28;20022;-77
2023/10/14 10:20:08;;;;;;;5.32;3.88;;;20.00;99.90;;;;;;5034449;28;20072;-77
2023/10/14 10:22:52;;;;;;;8.38;3.70;;;20.30;99.90;;;;;;5035045;28;20025;-77
2023/10/14 10:25:21;;;;;;;5.53;3.60;;;20.60;99.90;;;;;;5049895;28;20108;-77
2023/10/14 10:27:50;;;;;;;5.07;3.40;;;20.80;99.90;;;;;;5034645;28;20108;-78
2023/10/14 10:30:20;;;;;;;6.30;3.30;;;20.90;98.40;;;;;;5034750;28;20071;-77
2023/10/14 10:32:51;;;;;;;6.03;2.70;;;21.10;97.00;;;;;;5034815;28;20470;-77
2023/10/14 10:35:18;;;;;;;8.98;3.28;;;21.30;97.60;;;;;;5034034;28;20572;-77
2023/10/14 10:37:43;;;;;;;5.82;3.00;;;21.50;96.50;;;;;;5049841;28;20057;-77
2023/10/14 10:40:10;;;;;;;5.75;3.47;;;21.60;93.50;;;;;;5050181;28;20067;-78
2023/10/14 10:42:37;;;;;;;6.47;3.05;;;21.70;91.80;;;;;;5034567;28;20025;-78
2023/10/14 10:45:09;;;;;;;6.07;3.17;;;21.90;89.20;;;;;;5034489;28;20101;-78
2023/10/14 10:47:45;;;;;;;6.78;3.20;;;22.10;90.60;;;;;;5034237;28;20041;-78
2023/10/14 10:50:15;;;;;;;6.20;2.38;;;22.40;90.50;;;;;;5034443;28;20075;-78
2023/10/14 10:52:54;;;;;;;6.50;2.58;;;22.50;79.80;;;;;;5034478;28;20041;-78
2023/10/14 10:55:23;;;;;;;5.63;3.30;;;22.70;82.50;;;;;;5049493;28;20067;-78
2023/10/14 10:57:56;;;;;;;6.20;2.78;;;22.90;81.40;;;;;;5033010;28;20045;-79
2023/10/14 11:00:22;;;;;;;6.78;2.97;;;23.00;86.40;;;;;;5049918;28;20029;-78
2023/10/14 11:02:50;;;;;;;5.47;3.03;;;23.10;83.80;;;;;;5049387;28;20485;-78
2023/10/14 11:05:20;;;;;;;5.88;3.10;;;23.10;80.80;;;;;;5033429;28;20150;-79
2023/10/14 11:07:48;;;;;;;5.85;2.17;;;23.20;80.40;;;;;;5033693;28;20013;-77
2023/10/14 11:10:13;;;;;;;9.73;2.90;;;23.20;74.40;;;;;;5032668;28;20033;-80
2023/10/14 11:12:39;;;;;;;4.47;2.80;;;23.40;73.20;;;;;;5033997;28;20022;-79
2023/10/14 11:15:17;;;;;;;7.60;3.42;;;23.50;74.60;;;;;;5033815;28;20492;-78
2023/10/14 11:17:43;;;;;;;5.82;3.55;;;23.60;75.60;;;;;;5033881;28;20049;-78
2023/10/14 11:20:09;;;;;;;4.55;2.53;;;23.60;74.70;;;;;;5033902;28;20021;-78
2023/10/14 11:22:35;;;;;;;3.42;2.72;;;23.70;72.80;;;;;;5032500;28;20113;-79
2023/10/14 11:25:01;;;;;;;8.02;3.20;;;23.80;73.00;;;;;;5049090;28;20397;-77
2023/10/14 11:27:30;;;;;;;3.90;2.72;;;23.90;73.00;;;;;;5032821;28;20021;-78
2023/10/14 11:29:56;;;;;;;5.07;3.42;;;24.00;71.90;;;;;;5032184;28;20021;-77
2023/10/14 11:32:25;;;;;;;6.20;2.33;;;24.00;69.80;;;;;;5033082;28;20033;-79
2023/10/14 11:34:52;;;;;;;5.47;2.83;;;24.20;71.40;;;;;;5048699;28;20107;-77
2023/10/14 11:37:18;;;;;;;8.82;2.63;;;24.20;69.70;;;;;;5033753;28;20029;-78
2023/10/14 11:39:46;;;;;;;6.60;3.03;;;24.20;69.50;;;;;;5033073;28;20104;-79
2023/10/14 11:42:13;;;;;;;6.28;2.92;;;24.20;68.50;;;;;;5034007;28;20032;-79
2023/10/14 11:44:39;;;;;;;5.15;2.80;;;24.30;67.10;;;;;;5049252;28;20033;-78
2023/10/14 11:47:09;;;;;;;7.25;3.50;;;24.40;66.10;;;;;;5048729;28;20032;-79
2023/10/14 11:49:37;;;;;;;5.72;2.88;;;24.40;64.80;;;;;;5032954;28;20086;-79
2023/10/14 11:52:04;;;;;;;9.18;2.88;;;24.40;63.60;;;;;;5033285;28;20029;-79
2023/10/14 11:54:30;;;;;;;3.22;2.13;;;24.50;63.90;;;;;;5033947;28;20489;-80
2023/10/14 11:56:55;;;;;;;6.53;2.65;;;24.50;66.70;;;;;;5033007;28;20067;-78
2023/10/14 11:59:21;;;;;;;5.70;3.30;;;24.50;62.90;;;;;;5049028;28;20018;-78
2023/10/14 12:01:47;;;;;;;3.75;2.33;;;24.50;62.40;;;;;;5036208;28;20096;-77
2023/10/14 12:04:14;;;;;;;4.00;3.00;;;24.60;64.10;;;;;;5032991;28;20084;-78
2023/10/14 12:06:40;;;;;;;4.15;3.33;;;24.60;62.10;;;;;;5047940;28;20029;-80
2023/10/14 12:09:06;;;;;;;4.93;2.45;;;24.70;62.70;;;;;;5032982;28;20053;-78
2023/10/14 12:11:41;;;;;;;6.38;3.13;;;24.70;61.30;;;;;;5032195;28;20076;-78
2023/10/14 12:14:10;;;;;;;3.50;2.63;;;24.70;59.90;;;;;;5048408;28;20374;-76
2023/10/14 12:16:37;;;;;;;7.20;2.25;;;24.70;62.30;;;;;;5047785;28;20374;-78
2023/10/14 12:19:04;;;;;;;4.10;2.50;;;24.80;62.70;;;;;;5048207;28;20033;-76
2023/10/14 12:21:30;;;;;;;5.63;2.15;;;24.80;60.50;;;;;;5032625;28;20021;-78
2023/10/14 12:24:00;;;;;;;5.07;2.90;;;24.80;57.50;;;;;;5032705;28;20481;-76
2023/10/14 12:26:28;;;;;;;3.47;2.90;;;24.80;58.00;;;;;;5031025;28;20025;-78
2023/10/14 12:28:54;;;;;;;3.88;2.20;;;24.80;58.70;;;;;;5048122;28;20512;-78
2023/10/14 12:31:20;;;;;;;5.07;2.50;;;24.90;58.40;;;;;;5047781;28;20021;-79
2023/10/14 12:33:47;;;;;;;5.18;2.80;;;24.90;57.10;;;;;;5032777;28;20017;-79
2023/10/14 12:36:14;;;;;;;5.47;2.67;;;24.90;59.10;;;;;;5032201;28;20025;-78
2023/10/14 12:38:44;;;;;;;6.35;2.58;;;25.00;57.40;;;;;;5047498;28;20489;-78
2023/10/14 12:41:21;;;;;;;4.85;2.78;;;24.90;57.20;;;;;;5032298;28;20036;-78
2023/10/14 12:44:00;;;;;;;6.30;2.67;;;24.90;55.60;;;;;;5032384;28;20025;-79
2023/10/14 12:46:33;;;;;;;3.13;1.85;;;24.90;54.60;;;;;;5047419;28;20022;-76
2023/10/14 12:49:02;;;;;;;5.13;3.30;;;24.80;57.70;;;;;;5032072;28;20025;-79
2023/10/14 12:51:31;;;;;;;3.85;2.50;;;24.90;57.70;;;;;;5047327;28;20025;-78
2023/10/14 12:54:00;;;;;;;3.72;2.58;;;24.90;58.30;;;;;;5032300;28;20018;-77
2023/10/14 12:56:26;;;;;;;5.55;2.50;;;24.90;59.20;;;;;;5047101;28;20112;-78
2023/10/14 12:58:53;;;;;;;3.97;2.40;;;24.90;60.80;;;;;;5029687;28;20030;-78
2023/10/14 13:01:22;;;;;;;4.75;2.70;;;24.90;60.00;;;;;;5046712;28;20017;-78
2023/10/14 13:03:53;;;;;;;10.32;2.90;;;24.90;60.00;;;;;;5032114;28;20401;-78
2023/10/14 13:06:23;;;;;;;5.13;2.50;;;24.90;60.00;;;;;;5047112;28;20080;-79
2023/10/14 13:08:50;;;;;;;4.65;3.15;;;24.90;59.60;;;;;;5032139;28;20029;-79
2023/10/14 13:11:17;;;;;;;11.02;3.75;;;24.80;60.40;;;;;;5031916;28;20515;-79
2023/10/14 13:13:50;;;;;;;5.55;3.15;;;24.90;59.00;;;;;;5047506;28;20026;-78
2023/10/14 13:16:18;;;;;;;4.45;2.63;;;24.80;59.80;;;;;;5047206;28;20083;-78
2023/10/14 13:18:47;;;;;;;5.20;2.58;;;24.90;58.90;;;;;;5047273;28;20489;-79